Memphis (MEM/KMEM)

Information

Location
Memphis, TN
Local Time
14:48 / 2:48 pm
GMT Time
19:48 / 7:48 pm
Gates
C22
No FAA reported delays
METAR KMEM 281928Z 18014G24KT 10SM FEW030 BKN039 OVC250 28/22 A2977 RMK AO2 T02780222
TAF KMEM 281734Z 2818/2918 17012G18KT P6SM SCT025 BKN040 FM290000 18015G25KT P6SM SCT040 BKN250 FM290900 18015G25KT P6SM BKN015 FM291500 17020G30KT P6SM SCT025 BKN035